North Haven, CT (06473)

2:19 AM EDT on April 26, 2015 (GMT -0400)
North Haven High School | | Change Station
CLOSE
Current Station
Personal Weather Station
Location: North Haven, CT
Elevation: 22 ft
Nearby Weather Stations
Active Advisory: Frost Advisory

Elev 22 ft 41.37 °N, 72.86 °W | Updated 5 minutes ago

Clear
Clear
35.6 °F
Feels Like 36 °F
N
0.0
Wind Variable Wind from NE
Gusts 0.0 mph

Today
High -- | Low -- °F
--% Chance of Precip.
Yesterday
High -- | Low -- °F
Precip. -- in
5:55 AM 7:43 PM
First Quarter, 52% visible
Pressure 29.69 in
Visibility 10.0 miles
Clouds Clear
Windchill 36 °F
Dew Point 32 °F
Humidity 85%
Rainfall 0.00 in
Snow Depth Not available.
UV 0 out of 12
Pollen 10.40 out of 12
Air Quality Not available.
Flu Activity Widespread
METAR KHVN 260553Z AUTO 02004KT 10SM CLR 05/M01 A2969 RMK AO2 SLP054 T00501006 10122 20039 56005

More Conditions Fewer Conditions

Pressure 29.69 in
Visibility 10.0 miles
Clouds Clear
Windchill 36 °F
Dew Point 32 °F
Humidity 85%
Rainfall 0.00 in
Snow Depth Not available.
UV 0 out of 12
Pollen 10.40 out of 12
Air Quality Not available.
Flu Activity Widespread
METAR KHVN 260553Z AUTO 02004KT 10SM CLR 05/M01 A2969 RMK AO2 SLP054 T00501006 10122 20039 56005

More Conditions Fewer Conditions

The full scope of the disaster following a powerful 7.8-magnitude earthquake in Nepal may not come into view for days, but global charities are already sending emergency aid. Click to see how you can help.

10-Day Weather Forecast

Almanac

Astronomy

Apr. 26, 2015 Rise Set
Actual Time
Civil Twilight
Nautical Twilight
Astronomical Twilight
Moon
Length of Visible Light
Length of Day
Tomorrow will be .
, % of the Moon is Illuminated

Today's Extremes

State Highs State Lows

Community

WunderPhotos

Upload Photos

1,816,947 photos uploaded!

WunderBlogs® & News

Nearby

Air Quality

  Air Quality AQ Index Pollutant
Not available.

Snow Depth

Station Depth Elevation

Earthquake Activity

City Distance Mag. Time & Date
Minimum magnitude displayed is 2.5.

Coastal Water Temperatures

Place Temperature

Stations

Nearby Weather Stations

Station Location Temp. Windchill Dew Point Humidity Wind Precip. Elev Updated Type
                   
Frost Advisory
Statement as of 3:43 PM EDT on April 25, 2015

... Frost advisory in effect from 2 am to 8 am EDT Sunday...

The National Weather Service in Upton has issued a frost
advisory... which is in effect from 2 am to 8 am EDT Sunday.

* Locations... much of southern Connecticut and the lower Hudson
Valley... interior portions of northeastern New Jersey... and
eastern Long Island.

* Hazards... ground temperatures falling to freezing.

* Temperatures... in the lower to mid 30s.

* Timing... late tonight into early Sunday morning.

* Impacts... possible damage to early season plants that are
unprotected.

Precautionary/preparedness actions...

A frost advisory means that frost is expected. Sensitive outdoor
plants should be protected.